createdAt,value
2019-05-18T00:01:32.819Z,17.20
2019-05-18T00:04:20.962Z,17.10
2019-05-18T00:06:50.100Z,17.20
2019-05-18T00:09:19.207Z,17.10
2019-05-18T00:11:48.177Z,17.10
2019-05-18T00:14:17.308Z,17.10
2019-05-18T00:16:46.417Z,17.10
2019-05-18T00:19:15.521Z,17.10
2019-05-18T00:21:44.447Z,17.00
2019-05-18T00:24:13.662Z,17.00
2019-05-18T00:26:42.925Z,17.00
2019-05-18T00:29:11.996Z,17.00
2019-05-18T00:31:41.191Z,17.00
2019-05-18T00:34:10.187Z,17.00
2019-05-18T00:36:39.384Z,17.00
2019-05-18T00:39:08.601Z,17.00
2019-05-18T00:41:37.678Z,16.90
2019-05-18T00:44:06.925Z,16.90
2019-05-18T00:46:35.915Z,16.90
2019-05-18T00:49:05.009Z,16.90
2019-05-18T00:51:34.110Z,16.90
2019-05-18T00:54:03.213Z,16.90
2019-05-18T00:56:32.321Z,16.80
2019-05-18T00:59:01.501Z,16.80
2019-05-18T01:01:30.865Z,16.80
2019-05-18T01:04:00.044Z,16.80
2019-05-18T01:06:29.857Z,16.80
2019-05-18T01:08:58.972Z,16.80
2019-05-18T01:11:28.338Z,16.70
2019-05-18T01:13:57.413Z,16.70
2019-05-18T01:16:26.505Z,16.70
2019-05-18T01:18:55.540Z,16.70
2019-05-18T01:21:24.663Z,16.70
2019-05-18T01:23:53.656Z,16.70
2019-05-18T01:26:22.602Z,16.60
2019-05-18T01:28:52.875Z,16.60
2019-05-18T01:31:21.997Z,16.60
2019-05-18T01:33:51.034Z,16.60
2019-05-18T01:36:20.312Z,16.60
2019-05-18T01:38:49.531Z,16.60
2019-05-18T01:41:18.554Z,16.60
2019-05-18T01:43:47.433Z,16.60
2019-05-18T01:46:16.320Z,16.60
2019-05-18T01:48:45.604Z,16.50
2019-05-18T01:51:14.693Z,16.50
2019-05-18T01:53:43.888Z,16.50
2019-05-18T01:56:12.988Z,16.50
2019-05-18T01:58:42.091Z,16.50
2019-05-18T02:01:10.983Z,16.50
2019-05-18T02:03:40.357Z,16.50
2019-05-18T02:06:09.406Z,16.50
2019-05-18T02:08:38.314Z,16.50
2019-05-18T02:11:07.630Z,16.50
2019-05-18T02:13:36.687Z,16.40
2019-05-18T02:16:05.778Z,16.40
2019-05-18T02:18:34.965Z,16.40
2019-05-18T02:21:04.138Z,16.40
2019-05-18T02:23:33.162Z,16.40
2019-05-18T02:26:02.069Z,16.40
2019-05-18T02:28:31.118Z,16.30
2019-05-18T02:31:00.012Z,16.30
2019-05-18T02:33:29.094Z,16.30
2019-05-18T02:35:58.043Z,16.30
2019-05-18T02:38:27.143Z,16.30
2019-05-18T02:40:55.993Z,16.30
2019-05-18T02:43:25.127Z,16.30
2019-05-18T02:45:54.178Z,16.30
2019-05-18T02:48:23.200Z,16.30
2019-05-18T02:50:52.319Z,16.20
2019-05-18T02:53:21.438Z,16.30
2019-05-18T02:55:50.380Z,16.20
2019-05-18T02:58:19.299Z,16.20
2019-05-18T03:00:48.505Z,16.20
2019-05-18T03:03:17.742Z,16.20
2019-05-18T03:05:46.745Z,16.20
2019-05-18T03:08:15.717Z,16.20
2019-05-18T03:10:44.984Z,16.20
2019-05-18T03:13:14.300Z,16.20
2019-05-18T03:15:43.443Z,16.20
2019-05-18T03:18:12.535Z,16.20
2019-05-18T03:20:41.574Z,16.20
2019-05-18T03:23:10.773Z,16.20
2019-05-18T03:25:39.931Z,16.10
2019-05-18T03:28:09.042Z,16.10
2019-05-18T03:30:38.157Z,16.10
2019-05-18T03:33:07.703Z,16.10
2019-05-18T03:35:36.779Z,16.10
2019-05-18T03:38:07.811Z,16.10
2019-05-18T03:40:36.629Z,16.10
2019-05-18T03:43:06.058Z,16.10
2019-05-18T03:45:35.066Z,16.10
2019-05-18T03:48:04.050Z,16.10
2019-05-18T03:50:33.061Z,16.10
2019-05-18T03:53:02.389Z,16.10
2019-05-18T03:55:31.749Z,16.10
2019-05-18T03:58:00.941Z,16.00
2019-05-18T04:00:30.191Z,16.10
2019-05-18T04:02:59.557Z,16.10
2019-05-18T04:05:28.590Z,16.10
2019-05-18T04:07:57.856Z,16.10
2019-05-18T04:10:27.876Z,16.10
2019-05-18T04:12:57.164Z,16.20
2019-05-18T04:15:27.281Z,16.10
2019-05-18T04:17:56.446Z,16.10
2019-05-18T04:20:25.917Z,16.10
2019-05-18T04:22:54.977Z,16.10
2019-05-18T04:25:24.505Z,16.10
2019-05-18T04:27:54.014Z,16.10
2019-05-18T04:30:23.172Z,16.10
2019-05-18T04:32:52.326Z,16.20
2019-05-18T04:35:21.808Z,16.20
2019-05-18T04:37:50.995Z,16.20
2019-05-18T04:40:20.138Z,16.20
2019-05-18T04:42:49.257Z,16.20
2019-05-18T04:45:19.655Z,16.10
2019-05-18T04:47:49.104Z,16.10
2019-05-18T04:50:18.252Z,16.10
2019-05-18T04:52:48.101Z,16.10
2019-05-18T04:55:17.322Z,16.20
2019-05-18T04:57:46.268Z,16.20
2019-05-18T05:00:15.484Z,16.20
2019-05-18T05:02:44.853Z,16.20
2019-05-18T05:05:14.410Z,16.10
2019-05-18T05:07:43.524Z,16.20
2019-05-18T05:10:13.243Z,16.20
2019-05-18T05:12:42.225Z,16.20
2019-05-18T05:15:11.414Z,16.30
2019-05-18T05:17:40.667Z,16.30
2019-05-18T05:20:19.282Z,16.30
2019-05-18T05:22:41.217Z,16.30
2019-05-18T05:25:13.156Z,16.30
2019-05-18T05:27:43.387Z,16.40
2019-05-18T05:30:13.229Z,16.40
2019-05-18T05:32:42.451Z,16.40
2019-05-18T05:35:12.321Z,16.40
2019-05-18T05:37:41.948Z,16.40
2019-05-18T05:40:11.432Z,16.40
2019-05-18T05:42:40.547Z,16.40
2019-05-18T05:45:11.106Z,16.40
2019-05-18T05:47:40.309Z,16.50
2019-05-18T05:50:10.494Z,16.50
2019-05-18T05:52:40.261Z,16.50
2019-05-18T05:55:10.442Z,16.50
2019-05-18T05:57:39.766Z,16.60
2019-05-18T06:00:09.902Z,16.60
2019-05-18T06:02:40.130Z,16.60
2019-05-18T06:05:12.157Z,16.70
2019-05-18T06:07:43.121Z,16.70
2019-05-18T06:10:12.771Z,16.70
2019-05-18T06:12:42.331Z,16.70
2019-05-18T06:15:13.073Z,16.80
2019-05-18T06:17:43.756Z,16.80
2019-05-18T06:20:14.181Z,16.80
2019-05-18T06:22:44.806Z,16.90
2019-05-18T06:25:17.350Z,16.90
2019-05-18T06:27:50.884Z,16.90
2019-05-18T06:30:20.414Z,16.90
2019-05-18T06:32:51.822Z,17.00
2019-05-18T06:35:22.204Z,17.00
2019-05-18T06:37:53.365Z,17.00
2019-05-18T06:40:22.653Z,17.10
2019-05-18T06:42:52.699Z,17.10
2019-05-18T06:45:22.288Z,17.10
2019-05-18T06:47:51.473Z,17.10
2019-05-18T06:50:28.296Z,17.20
2019-05-18T06:52:58.395Z,17.20
2019-05-18T06:55:28.008Z,17.30
2019-05-18T06:58:00.240Z,17.40
2019-05-18T07:00:37.450Z,17.40
2019-05-18T07:03:10.624Z,17.40
2019-05-18T07:06:14.163Z,17.40
2019-05-18T07:08:45.199Z,17.50
2019-05-18T07:11:14.779Z,17.50
2019-05-18T07:13:44.294Z,17.60
2019-05-18T07:16:15.936Z,17.60
2019-05-18T07:18:45.671Z,17.70
2019-05-18T07:21:22.240Z,17.70
2019-05-18T07:23:48.470Z,17.80
2019-05-18T07:26:17.933Z,17.80
2019-05-18T07:29:06.890Z,17.80
2019-05-18T07:31:36.302Z,17.80
2019-05-18T07:34:05.687Z,17.90
2019-05-18T07:36:34.880Z,17.90
2019-05-18T07:39:08.074Z,18.00
2019-05-18T07:41:46.361Z,18.00
2019-05-18T07:44:08.917Z,18.00
2019-05-18T07:46:38.777Z,18.10
2019-05-18T07:49:08.197Z,18.10
2019-05-18T07:51:38.343Z,18.20
2019-05-18T07:54:07.908Z,18.20
2019-05-18T07:56:37.603Z,18.20
2019-05-18T07:59:07.246Z,18.30
2019-05-18T08:01:36.903Z,18.30
2019-05-18T08:04:07.746Z,18.30
2019-05-18T08:06:37.349Z,18.40
2019-05-18T08:09:12.668Z,18.40
2019-05-18T08:11:42.318Z,18.40
2019-05-18T08:14:21.629Z,18.40
2019-05-18T08:16:52.314Z,18.50
2019-05-18T08:19:22.373Z,18.50
2019-05-18T08:21:53.627Z,18.60
2019-05-18T08:24:27.387Z,18.60
2019-05-18T08:26:56.549Z,18.60
2019-05-18T08:29:26.748Z,18.70
2019-05-18T08:31:56.245Z,18.70
2019-05-18T08:34:25.571Z,18.70
2019-05-18T08:36:55.139Z,18.70
2019-05-18T08:39:24.684Z,18.80
2019-05-18T08:41:56.479Z,18.80
2019-05-18T08:44:25.617Z,18.80
2019-05-18T08:46:55.112Z,18.90
2019-05-18T08:49:24.683Z,18.90
2019-05-18T08:52:07.493Z,19.00
2019-05-18T08:54:30.947Z,19.00
2019-05-18T08:57:00.010Z,19.00
2019-05-18T08:59:29.349Z,19.10
2019-05-18T09:01:58.531Z,19.10
2019-05-18T09:04:28.643Z,19.20
2019-05-18T09:06:58.061Z,19.20
2019-05-18T09:09:29.418Z,19.20
2019-05-18T09:11:58.458Z,19.30
2019-05-18T09:14:29.958Z,19.30
2019-05-18T09:16:59.535Z,19.30
2019-05-18T09:19:28.822Z,19.40
2019-05-18T09:21:58.140Z,19.40
2019-05-18T09:24:27.351Z,19.40
2019-05-18T09:26:56.491Z,19.40
2019-05-18T09:29:25.977Z,19.50
2019-05-18T09:31:55.916Z,19.50
2019-05-18T09:34:26.573Z,19.60
2019-05-18T09:36:56.262Z,19.60
2019-05-18T09:39:27.609Z,19.60
2019-05-18T09:41:57.563Z,19.70
2019-05-18T09:44:26.582Z,19.70
2019-05-18T09:46:55.865Z,19.70
2019-05-18T09:49:25.188Z,19.70
2019-05-18T09:51:54.228Z,19.80
2019-05-18T09:54:23.373Z,19.80
2019-05-18T09:56:52.568Z,19.90
2019-05-18T09:59:21.974Z,19.90
2019-05-18T10:01:51.203Z,19.90
2019-05-18T10:04:20.380Z,20.00
2019-05-18T10:06:49.562Z,20.10
2019-05-18T10:09:19.279Z,20.10
2019-05-18T10:11:48.627Z,20.20
2019-05-18T10:18:12.431Z,20.30
2019-05-18T10:20:41.895Z,20.40
2019-05-18T10:23:13.569Z,20.50
2019-05-18T10:25:42.294Z,20.60
2019-05-18T10:28:11.822Z,20.60
2019-05-18T10:30:41.884Z,20.50
2019-05-18T10:33:10.971Z,20.40
2019-05-18T10:35:40.466Z,20.40
2019-05-18T10:38:09.704Z,20.40
2019-05-18T10:40:38.905Z,20.50
2019-05-18T10:43:08.363Z,20.50
2019-05-18T10:45:37.447Z,20.50
2019-05-18T10:48:06.864Z,20.50
2019-05-18T10:50:36.008Z,20.60
2019-05-18T10:53:05.318Z,20.60
2019-05-18T10:55:34.744Z,20.60
2019-05-18T10:58:06.156Z,20.60
2019-05-18T11:00:37.150Z,20.60
2019-05-18T11:03:06.602Z,20.60
2019-05-18T11:05:36.019Z,20.60
2019-05-18T11:08:05.258Z,20.60
2019-05-18T11:10:34.616Z,20.70
2019-05-18T11:13:03.683Z,20.70
2019-05-18T11:15:32.850Z,20.70
2019-05-18T11:18:07.577Z,20.70
2019-05-18T11:20:36.753Z,20.70
2019-05-18T11:23:06.141Z,20.70
2019-05-18T11:25:35.276Z,20.70
2019-05-18T11:28:04.699Z,20.70
2019-05-18T11:30:34.197Z,20.80
2019-05-18T11:33:03.324Z,20.80
2019-05-18T11:35:36.095Z,20.90
2019-05-18T11:38:05.575Z,21.10
2019-05-18T11:40:34.877Z,21.20
2019-05-18T11:43:04.372Z,21.20
2019-05-18T11:45:34.399Z,21.20
2019-05-18T11:48:03.946Z,21.30
2019-05-18T11:50:33.318Z,21.40
2019-05-18T11:53:03.016Z,21.60
2019-05-18T11:55:32.172Z,21.80
2019-05-18T11:58:01.335Z,22.00
2019-05-18T12:00:31.181Z,22.10
2019-05-18T12:03:00.228Z,22.30
2019-05-18T12:05:31.686Z,22.30
2019-05-18T12:08:01.018Z,22.30
2019-05-18T12:10:30.389Z,22.30
2019-05-18T12:13:00.190Z,22.40
2019-05-18T12:15:30.038Z,22.40
2019-05-18T12:17:59.849Z,22.50
2019-05-18T12:20:31.256Z,22.40
2019-05-18T12:23:00.348Z,22.40
2019-05-18T12:25:30.879Z,22.30
2019-05-18T12:28:00.311Z,22.30
2019-05-18T12:30:29.544Z,22.40
2019-05-18T12:32:59.247Z,22.40
2019-05-18T12:35:28.397Z,22.50
2019-05-18T12:37:57.597Z,22.60
2019-05-18T12:40:27.111Z,22.70
2019-05-18T12:42:56.485Z,22.70
2019-05-18T12:45:26.150Z,22.70
2019-05-18T12:47:55.481Z,22.70
2019-05-18T12:50:26.603Z,22.70
2019-05-18T12:52:56.016Z,22.70
2019-05-18T12:55:25.353Z,22.80
2019-05-18T12:57:54.554Z,22.80
2019-05-18T13:00:24.551Z,22.80
2019-05-18T13:02:53.681Z,22.90
2019-05-18T13:05:23.597Z,22.90
2019-05-18T13:07:53.394Z,22.90
2019-05-18T13:10:23.076Z,22.90
2019-05-18T13:12:52.377Z,22.90
2019-05-18T13:15:22.206Z,23.00
2019-05-18T13:17:51.533Z,23.10
2019-05-18T13:20:21.831Z,23.20
2019-05-18T13:22:51.058Z,23.20
2019-05-18T13:25:21.073Z,23.20
2019-05-18T13:27:50.424Z,23.20
2019-05-18T13:30:21.838Z,23.30
2019-05-18T13:32:51.021Z,23.30
2019-05-18T13:35:20.301Z,23.30
2019-05-18T13:37:49.412Z,23.40
2019-05-18T13:40:20.414Z,23.40
2019-05-18T13:42:49.701Z,23.50
2019-05-18T13:45:19.290Z,23.50
2019-05-18T13:47:48.503Z,23.50
2019-05-18T13:50:18.130Z,23.50
2019-05-18T13:52:47.248Z,23.60
2019-05-18T13:55:19.461Z,23.60
2019-05-18T13:57:48.497Z,23.60
2019-05-18T14:00:18.310Z,23.70
2019-05-18T14:02:47.437Z,23.70
2019-05-18T14:05:17.234Z,23.70
2019-05-18T14:07:47.052Z,23.70
2019-05-18T14:10:18.356Z,23.70
2019-05-18T14:12:52.100Z,23.70
2019-05-18T14:15:25.606Z,23.60
2019-05-18T14:17:54.878Z,23.60
2019-05-18T14:20:26.296Z,23.60
2019-05-18T14:22:55.322Z,23.60
2019-05-18T14:25:27.428Z,23.50
2019-05-18T14:27:56.960Z,23.40
2019-05-18T14:30:26.771Z,23.30
2019-05-18T14:32:55.881Z,23.30
2019-05-18T14:35:26.603Z,23.30
2019-05-18T14:37:56.010Z,23.40
2019-05-18T14:40:25.247Z,23.50
2019-05-18T14:42:54.401Z,23.60
2019-05-18T14:45:24.238Z,23.70
2019-05-18T14:47:53.845Z,23.70
2019-05-18T14:50:24.066Z,23.80
2019-05-18T14:52:54.008Z,23.80
2019-05-18T14:55:33.814Z,23.90
2019-05-18T14:58:18.538Z,23.90
2019-05-18T15:00:47.746Z,24.00
2019-05-18T15:03:17.166Z,24.00
2019-05-18T15:05:46.514Z,24.10
2019-05-18T15:08:15.968Z,24.10
2019-05-18T15:10:45.141Z,24.20
2019-05-18T15:13:14.470Z,24.20
2019-05-18T15:15:43.879Z,24.20
2019-05-18T15:18:13.074Z,24.30
2019-05-18T15:20:42.904Z,24.30
2019-05-18T15:23:12.405Z,24.30
2019-05-18T15:25:50.139Z,24.30
2019-05-18T15:28:12.168Z,24.30
2019-05-18T15:30:41.365Z,24.40
2019-05-18T15:33:10.769Z,24.40
2019-05-18T15:35:40.296Z,24.40
2019-05-18T15:38:09.586Z,24.40
2019-05-18T15:40:38.877Z,24.40
2019-05-18T15:43:08.473Z,24.40
2019-05-18T15:45:38.149Z,24.40
2019-05-18T15:48:07.341Z,24.50
2019-05-18T15:50:38.600Z,24.40
2019-05-18T15:53:08.180Z,24.40
2019-05-18T15:55:37.621Z,24.40
2019-05-18T15:58:06.993Z,24.40
2019-05-18T16:00:36.427Z,24.40
2019-05-18T16:03:05.608Z,24.40
2019-05-18T16:05:34.850Z,24.40
2019-05-18T16:08:04.204Z,24.40
2019-05-18T16:10:33.298Z,24.30
2019-05-18T16:13:02.472Z,24.30
2019-05-18T16:15:31.660Z,24.20
2019-05-18T16:18:00.983Z,24.10
2019-05-18T16:20:30.649Z,24.10
2019-05-18T16:22:59.858Z,24.10
2019-05-18T16:25:31.815Z,24.00
2019-05-18T16:28:03.202Z,23.90
2019-05-18T16:30:32.607Z,23.90
2019-05-18T16:33:01.838Z,23.80
2019-05-18T16:35:31.241Z,23.70
2019-05-18T16:38:00.468Z,23.70
2019-05-18T16:40:29.737Z,23.60
2019-05-18T16:43:03.526Z,23.50
2019-05-18T16:45:32.672Z,23.50
2019-05-18T16:48:01.931Z,23.40
2019-05-18T16:50:36.601Z,23.40
2019-05-18T16:53:06.034Z,23.30
2019-05-18T16:55:35.466Z,23.30
2019-05-18T16:58:04.745Z,23.30
2019-05-18T17:00:34.070Z,23.20
2019-05-18T17:03:03.425Z,23.20
2019-05-18T17:05:32.936Z,23.20
2019-05-18T17:08:02.224Z,23.20
2019-05-18T17:10:31.949Z,23.10
2019-05-18T17:13:01.218Z,23.10
2019-05-18T17:15:30.452Z,23.10
2019-05-18T17:18:00.293Z,23.10
2019-05-18T17:20:29.574Z,23.10
2019-05-18T17:23:19.092Z,23.00
2019-05-18T17:25:48.276Z,23.00
2019-05-18T17:28:17.519Z,23.00
2019-05-18T17:30:46.861Z,22.90
2019-05-18T17:33:16.239Z,23.00
2019-05-18T17:35:59.449Z,23.00
2019-05-18T17:38:16.590Z,22.90
2019-05-18T17:40:45.892Z,23.00
2019-05-18T17:43:15.483Z,22.90
2019-05-18T17:45:44.814Z,22.90
2019-05-18T17:48:21.364Z,23.00
2019-05-18T17:50:51.047Z,23.00
2019-05-18T17:53:26.053Z,22.90
2019-05-18T17:55:55.881Z,22.90
2019-05-18T17:58:26.214Z,22.90
2019-05-18T18:00:55.399Z,22.90
2019-05-18T18:03:24.924Z,22.80
2019-05-18T18:05:54.091Z,22.80
2019-05-18T18:08:23.453Z,22.70
2019-05-18T18:10:53.243Z,22.70
2019-05-18T18:13:22.994Z,22.70
2019-05-18T18:15:53.655Z,22.60
2019-05-18T18:18:26.867Z,22.60
2019-05-18T18:21:00.688Z,22.50
2019-05-18T18:23:54.524Z,22.50
2019-05-18T18:26:26.339Z,22.50
2019-05-18T18:28:56.478Z,22.40
2019-05-18T18:31:28.748Z,22.40
2019-05-18T18:33:57.983Z,22.30
2019-05-18T18:36:28.488Z,22.30
2019-05-18T18:39:04.360Z,22.20
2019-05-18T18:41:33.915Z,22.20
2019-05-18T18:44:27.955Z,22.20
2019-05-18T18:46:58.508Z,22.10
2019-05-18T18:49:47.749Z,22.10
2019-05-18T18:52:16.958Z,22.10
2019-05-18T18:55:01.217Z,22.00
2019-05-18T18:57:40.629Z,22.00
2019-05-18T19:00:01.412Z,21.90
2019-05-18T19:02:32.942Z,21.90
2019-05-18T19:05:02.698Z,21.80
2019-05-18T19:07:32.101Z,21.80
2019-05-18T19:10:01.480Z,21.80
2019-05-18T19:12:31.732Z,21.80
2019-05-18T19:15:00.957Z,21.70
2019-05-18T19:17:30.203Z,21.70
2019-05-18T19:19:59.865Z,21.70
2019-05-18T19:22:29.263Z,21.60
2019-05-18T19:24:58.695Z,21.60
2019-05-18T19:27:55.029Z,21.60
2019-05-18T19:30:22.275Z,21.60
2019-05-18T19:32:51.540Z,21.50
2019-05-18T19:35:21.085Z,21.50
2019-05-18T19:37:50.615Z,21.50
2019-05-18T19:40:21.334Z,21.40
2019-05-18T19:42:51.408Z,21.40
2019-05-18T19:45:21.262Z,21.40
2019-05-18T19:47:50.862Z,21.40
2019-05-18T19:50:20.494Z,21.40
2019-05-18T19:52:50.411Z,21.40
2019-05-18T19:55:19.858Z,21.40
2019-05-18T19:57:50.364Z,21.30
2019-05-18T20:00:20.079Z,21.30
2019-05-18T20:02:51.497Z,21.30
2019-05-18T20:05:20.807Z,21.30
2019-05-18T20:07:50.084Z,21.20
2019-05-18T20:10:20.064Z,21.20
2019-05-18T20:12:50.426Z,21.20
2019-05-18T20:15:22.067Z,21.20
2019-05-18T20:17:56.947Z,21.10
2019-05-18T20:20:26.169Z,21.10
2019-05-18T20:22:55.828Z,21.10
2019-05-18T20:25:26.660Z,21.10
2019-05-18T20:28:23.399Z,21.10
2019-05-18T20:30:47.422Z,21.10
2019-05-18T20:33:17.264Z,21.10
2019-05-18T20:35:48.423Z,21.00
2019-05-18T20:38:22.571Z,21.00
2019-05-18T20:40:51.838Z,21.00
2019-05-18T20:43:21.547Z,21.00
2019-05-18T20:45:51.685Z,20.90
2019-05-18T20:48:24.875Z,21.00
2019-05-18T20:50:55.182Z,21.00
2019-05-18T20:53:26.029Z,20.90
2019-05-18T20:55:55.343Z,20.90
2019-05-18T20:58:38.735Z,20.90
2019-05-18T21:00:56.083Z,20.90
2019-05-18T21:03:27.084Z,20.90
2019-05-18T21:05:56.650Z,20.80
2019-05-18T21:08:26.447Z,20.80
2019-05-18T21:11:00.036Z,20.80
2019-05-18T21:13:30.090Z,20.80
2019-05-18T21:16:04.590Z,20.80
2019-05-18T21:18:35.989Z,20.80
2019-05-18T21:21:05.379Z,20.80
2019-05-18T21:23:36.047Z,20.70
2019-05-18T21:26:06.133Z,20.70
2019-05-18T21:28:36.038Z,20.70
2019-05-18T21:31:11.542Z,20.70
2019-05-18T21:33:45.250Z,20.70
2019-05-18T21:36:24.078Z,20.70
2019-05-18T21:38:56.341Z,20.60
2019-05-18T21:41:28.022Z,20.60
2019-05-18T21:43:57.444Z,20.60
2019-05-18T21:46:27.047Z,20.60
2019-05-18T21:48:56.451Z,20.60
2019-05-18T21:51:26.011Z,20.60
2019-05-18T21:53:55.162Z,20.60
2019-05-18T21:56:24.788Z,20.60
2019-05-18T21:58:53.876Z,20.60
2019-05-18T22:01:23.298Z,20.50
2019-05-18T22:03:52.708Z,20.50
2019-05-18T22:06:21.957Z,20.50
2019-05-18T22:08:51.487Z,20.50
2019-05-18T22:11:21.232Z,20.50
2019-05-18T22:13:50.609Z,20.50
2019-05-18T22:16:19.879Z,20.50
2019-05-18T22:18:49.443Z,20.40
2019-05-18T22:21:18.569Z,20.40
2019-05-18T22:23:47.806Z,20.40
2019-05-18T22:26:16.980Z,20.40
2019-05-18T22:28:46.162Z,20.40
2019-05-18T22:31:19.478Z,20.40
2019-05-18T22:33:47.529Z,20.30
2019-05-18T22:36:17.971Z,20.40
2019-05-18T22:38:47.383Z,20.30
2019-05-18T22:41:17.410Z,20.30
2019-05-18T22:43:46.607Z,20.30
2019-05-18T22:46:15.915Z,20.30
2019-05-18T22:48:45.052Z,20.30
2019-05-18T22:51:14.198Z,20.30
2019-05-18T22:53:46.366Z,20.30
2019-05-18T22:56:14.441Z,20.20
2019-05-18T22:58:43.510Z,20.20
2019-05-18T23:01:12.708Z,20.20
2019-05-18T23:03:41.856Z,20.20
2019-05-18T23:06:11.040Z,20.20
2019-05-18T23:08:40.175Z,20.20
2019-05-18T23:11:11.771Z,20.10
2019-05-18T23:13:41.121Z,20.10
2019-05-18T23:16:12.804Z,20.10
2019-05-18T23:18:55.870Z,20.10
2019-05-18T23:21:12.894Z,20.00
2019-05-18T23:23:42.100Z,20.00
2019-05-18T23:26:11.809Z,20.00
2019-05-18T23:28:41.149Z,20.00
2019-05-18T23:31:10.270Z,20.00
2019-05-18T23:33:39.522Z,20.00
2019-05-18T23:36:09.401Z,20.00
2019-05-18T23:38:38.666Z,19.90
2019-05-18T23:41:08.275Z,19.90
2019-05-18T23:43:37.853Z,19.90
2019-05-18T23:46:07.178Z,19.90
2019-05-18T23:48:36.398Z,19.90
2019-05-18T23:51:05.501Z,19.80
2019-05-18T23:53:34.871Z,19.80
2019-05-18T23:56:04.250Z,19.80
2019-05-18T23:58:33.633Z,19.80
